createdAt,value
2018-09-19T00:00:39.929Z,20.94
2018-09-19T00:03:10.478Z,20.92
2018-09-19T00:05:42.003Z,20.87
2018-09-19T00:08:12.131Z,20.87
2018-09-19T00:10:41.788Z,20.85
2018-09-19T00:13:11.973Z,20.82
2018-09-19T00:15:41.478Z,20.80
2018-09-19T00:18:10.991Z,20.79
2018-09-19T00:20:40.390Z,20.79
2018-09-19T00:23:10.762Z,20.76
2018-09-19T00:25:40.078Z,20.75
2018-09-19T00:28:09.604Z,20.69
2018-09-19T00:30:40.119Z,20.62
2018-09-19T00:33:12.390Z,20.60
2018-09-19T00:35:41.912Z,20.53
2018-09-19T00:38:13.732Z,20.48
2018-09-19T00:40:43.499Z,20.44
2018-09-19T00:43:13.953Z,20.45
2018-09-19T00:45:43.421Z,20.42
2018-09-19T00:48:12.846Z,20.39
2018-09-19T00:50:42.325Z,20.38
2018-09-19T00:53:12.437Z,20.36
2018-09-19T00:55:43.522Z,20.35
2018-09-19T00:58:13.989Z,20.33
2018-09-19T01:00:46.691Z,20.33
2018-09-19T01:03:16.125Z,20.29
2018-09-19T01:05:45.908Z,20.27
2018-09-19T01:08:15.899Z,20.22
2018-09-19T01:10:45.889Z,20.27
2018-09-19T01:13:15.648Z,20.24
2018-09-19T01:15:51.573Z,20.23
2018-09-19T01:18:21.487Z,20.16
2018-09-19T01:20:54.402Z,20.18
2018-09-19T01:23:25.358Z,20.14
2018-09-19T01:25:55.481Z,20.07
2018-09-19T01:28:28.151Z,20.00
2018-09-19T01:30:58.073Z,19.88
2018-09-19T01:33:29.317Z,19.88
2018-09-19T01:35:58.750Z,19.85
2018-09-19T01:38:45.958Z,19.83
2018-09-19T01:41:18.093Z,19.81
2018-09-19T01:43:48.094Z,19.78
2018-09-19T01:46:18.491Z,19.71
2018-09-19T01:48:49.480Z,19.67
2018-09-19T01:51:20.012Z,19.64
2018-09-19T01:53:50.034Z,19.60
2018-09-19T01:56:20.366Z,19.58
2018-09-19T01:58:49.887Z,19.57
2018-09-19T02:01:19.269Z,19.53
2018-09-19T02:03:50.334Z,19.49
2018-09-19T02:06:22.662Z,19.47
2018-09-19T02:08:52.173Z,19.42
2018-09-19T02:11:21.678Z,19.43
2018-09-19T02:13:51.144Z,19.41
2018-09-19T02:16:21.215Z,19.41
2018-09-19T02:18:51.054Z,19.33
2018-09-19T02:21:20.925Z,19.29
2018-09-19T02:23:50.433Z,19.25
2018-09-19T02:26:36.748Z,19.22
2018-09-19T02:29:13.275Z,19.20
2018-09-19T02:31:42.592Z,19.16
2018-09-19T02:34:11.852Z,19.12
2018-09-19T02:36:42.432Z,19.09
2018-09-19T02:39:12.384Z,19.06
2018-09-19T02:41:41.816Z,19.02
2018-09-19T02:44:11.228Z,18.99
2018-09-19T02:46:42.280Z,18.99
2018-09-19T02:49:11.836Z,18.97
2018-09-19T02:51:41.590Z,18.95
2018-09-19T02:54:11.489Z,18.91
2018-09-19T02:56:40.892Z,18.89
2018-09-19T02:59:10.222Z,18.85
2018-09-19T03:01:39.561Z,18.82
2018-09-19T03:04:11.976Z,18.81
2018-09-19T03:06:41.429Z,18.79
2018-09-19T03:09:11.238Z,18.80
2018-09-19T03:14:37.337Z,18.67
2018-09-19T03:17:07.363Z,18.63
2018-09-19T03:19:38.000Z,18.59
2018-09-19T03:22:08.098Z,18.57
2018-09-19T03:24:37.474Z,18.56
2018-09-19T03:27:07.525Z,18.51
2018-09-19T03:29:37.089Z,18.48
2018-09-19T03:32:06.669Z,18.45
2018-09-19T03:34:36.679Z,18.43
2018-09-19T03:37:06.096Z,18.42
2018-09-19T03:39:35.429Z,18.41
2018-09-19T03:42:05.776Z,18.39
2018-09-19T03:44:35.194Z,18.40
2018-09-19T03:47:04.873Z,18.38
2018-09-19T03:49:34.198Z,18.38
2018-09-19T03:52:03.775Z,18.39
2018-09-19T03:54:33.552Z,18.39
2018-09-19T03:57:02.886Z,18.37
2018-09-19T03:59:32.253Z,18.38
2018-09-19T04:02:01.593Z,18.38
2018-09-19T04:04:30.951Z,18.37
2018-09-19T04:07:00.331Z,18.36
2018-09-19T04:09:29.680Z,18.35
2018-09-19T04:11:59.306Z,18.34
2018-09-19T04:14:28.922Z,18.38
2018-09-19T04:16:58.315Z,18.37
2018-09-19T04:19:29.173Z,18.37
2018-09-19T04:21:58.563Z,18.37
2018-09-19T04:24:27.893Z,18.35
2018-09-19T04:26:57.327Z,18.33
2018-09-19T04:29:26.690Z,18.35
2018-09-19T04:31:57.966Z,18.36
2018-09-19T04:34:29.919Z,18.37
2018-09-19T04:36:59.278Z,18.38
2018-09-19T04:39:28.624Z,18.39
2018-09-19T04:41:58.150Z,18.42
2018-09-19T04:44:27.626Z,18.42
2018-09-19T04:46:58.890Z,18.40
2018-09-19T04:49:28.896Z,18.36
2018-09-19T04:51:58.535Z,18.32
2018-09-19T04:54:27.829Z,18.29
2018-09-19T04:56:58.226Z,18.24
2018-09-19T04:59:27.512Z,18.24
2018-09-19T05:01:56.925Z,18.22
2018-09-19T05:04:27.662Z,18.24
2018-09-19T05:06:57.053Z,18.24
2018-09-19T05:09:27.637Z,18.25
2018-09-19T05:11:57.081Z,18.26
2018-09-19T05:14:26.523Z,18.27
2018-09-19T05:16:55.937Z,18.26
2018-09-19T05:19:25.363Z,18.29
2018-09-19T05:21:55.325Z,18.31
2018-09-19T05:24:33.628Z,18.34
2018-09-19T05:27:02.968Z,18.33
2018-09-19T05:29:32.390Z,18.35
2018-09-19T05:32:01.875Z,18.34
2018-09-19T05:34:32.498Z,18.34
2018-09-19T05:37:01.899Z,18.30
2018-09-19T05:39:33.631Z,18.29
2018-09-19T05:42:04.497Z,18.28
2018-09-19T05:44:35.116Z,18.27
2018-09-19T05:47:04.628Z,18.29
2018-09-19T05:49:34.441Z,18.27
2018-09-19T05:52:04.267Z,18.28
2018-09-19T05:54:33.899Z,18.29
2018-09-19T05:57:04.240Z,18.29
2018-09-19T05:59:34.404Z,18.28
2018-09-19T06:02:04.238Z,18.33
2018-09-19T06:04:33.593Z,18.28
2018-09-19T06:07:04.142Z,18.26
2018-09-19T06:09:33.461Z,18.26
2018-09-19T06:12:02.790Z,18.26
2018-09-19T06:14:32.113Z,18.26
2018-09-19T06:17:01.396Z,18.27
2018-09-19T06:19:30.760Z,18.35
2018-09-19T06:22:00.190Z,18.38
2018-09-19T06:24:30.456Z,18.39
2018-09-19T06:26:59.892Z,18.40
2018-09-19T06:29:29.618Z,18.42
2018-09-19T06:31:59.079Z,18.42
2018-09-19T06:34:29.581Z,18.45
2018-09-19T06:36:59.003Z,18.46
2018-09-19T06:39:30.607Z,18.50
2018-09-19T06:42:00.778Z,18.56
2018-09-19T06:44:30.116Z,18.59
2018-09-19T06:47:00.106Z,18.65
2018-09-19T06:49:31.094Z,18.68
2018-09-19T06:52:01.459Z,18.74
2018-09-19T06:54:31.684Z,18.83
2018-09-19T06:57:01.156Z,18.88
2018-09-19T06:59:30.529Z,18.93
2018-09-19T07:01:59.997Z,19.00
2018-09-19T07:04:29.851Z,19.13
2018-09-19T07:07:00.379Z,19.19
2018-09-19T07:09:29.780Z,19.27
2018-09-19T07:11:59.189Z,19.29
2018-09-19T07:14:28.729Z,19.36
2018-09-19T07:16:58.204Z,19.44
2018-09-19T07:19:27.817Z,19.52
2018-09-19T07:21:58.030Z,19.62
2018-09-19T07:24:28.768Z,19.70
2018-09-19T07:26:58.301Z,19.80
2018-09-19T07:29:27.775Z,19.83
2018-09-19T07:31:57.923Z,19.98
2018-09-19T07:34:27.411Z,20.10
2018-09-19T07:36:56.958Z,20.12
2018-09-19T07:39:26.469Z,20.25
2018-09-19T07:41:56.017Z,20.28
2018-09-19T07:44:25.540Z,20.38
2018-09-19T07:46:55.081Z,20.43
2018-09-19T07:49:24.685Z,20.47
2018-09-19T07:51:54.250Z,20.57
2018-09-19T07:54:24.707Z,20.64
2018-09-19T07:56:54.107Z,20.73
2018-09-19T07:59:23.788Z,20.87
2018-09-19T08:01:53.053Z,20.94
2018-09-19T08:04:22.601Z,20.98
2018-09-19T08:06:51.921Z,21.10
2018-09-19T08:09:21.616Z,21.18
2018-09-19T08:11:51.689Z,21.25
2018-09-19T08:14:21.122Z,21.37
2018-09-19T08:16:50.727Z,21.49
2018-09-19T08:19:21.046Z,21.61
2018-09-19T08:21:50.750Z,21.74
2018-09-19T08:24:20.196Z,21.83
2018-09-19T08:26:52.534Z,22.08
2018-09-19T08:29:21.809Z,22.21
2018-09-19T08:31:51.653Z,22.26
2018-09-19T08:34:20.975Z,22.26
2018-09-19T08:36:51.628Z,22.27
2018-09-19T08:39:21.585Z,22.32
2018-09-19T08:41:52.040Z,22.39
2018-09-19T08:44:22.182Z,22.48
2018-09-19T08:46:52.638Z,22.51
2018-09-19T08:49:22.378Z,22.57
2018-09-19T08:51:52.017Z,22.59
2018-09-19T08:54:21.296Z,22.67
2018-09-19T08:56:50.717Z,22.69
2018-09-19T08:59:20.158Z,22.77
2018-09-19T09:01:49.857Z,22.77
2018-09-19T09:04:20.231Z,22.80
2018-09-19T09:06:52.238Z,22.92
2018-09-19T09:09:22.624Z,23.04
2018-09-19T09:11:52.180Z,23.11
2018-09-19T09:14:21.561Z,23.24
2018-09-19T09:16:51.083Z,23.31
2018-09-19T09:19:20.461Z,23.35
2018-09-19T09:21:51.147Z,23.53
2018-09-19T09:24:21.262Z,23.60
2018-09-19T09:26:50.595Z,23.74
2018-09-19T09:29:19.977Z,23.85
2018-09-19T09:31:49.600Z,23.82
2018-09-19T09:34:18.974Z,23.94
2018-09-19T09:36:48.282Z,23.98
2018-09-19T09:39:17.669Z,24.11
2018-09-19T09:41:46.993Z,24.19
2018-09-19T09:44:16.358Z,24.28
2018-09-19T09:46:45.937Z,24.34
2018-09-19T09:49:15.327Z,24.43
2018-09-19T09:51:45.640Z,24.62
2018-09-19T09:54:17.010Z,24.90
2018-09-19T09:56:48.740Z,25.25
2018-09-19T09:59:18.154Z,25.55
2018-09-19T10:01:47.448Z,25.69
2018-09-19T10:04:17.634Z,25.80
2018-09-19T10:06:47.057Z,25.90
2018-09-19T10:09:17.382Z,25.98
2018-09-19T10:11:46.840Z,26.02
2018-09-19T10:14:16.900Z,26.04
2018-09-19T10:16:46.348Z,26.10
2018-09-19T10:19:16.365Z,26.12
2018-09-19T10:21:45.704Z,26.08
2018-09-19T10:24:20.242Z,26.04
2018-09-19T10:26:50.186Z,26.11
2018-09-19T10:29:20.101Z,26.17
2018-09-19T10:31:49.896Z,26.20
2018-09-19T10:34:19.278Z,26.19
2018-09-19T10:36:48.558Z,26.15
2018-09-19T10:39:17.933Z,26.16
2018-09-19T10:41:47.246Z,26.20
2018-09-19T10:44:16.532Z,26.36
2018-09-19T10:46:46.573Z,26.41
2018-09-19T10:49:16.386Z,26.61
2018-09-19T10:51:46.113Z,26.68
2018-09-19T10:54:15.547Z,26.66
2018-09-19T10:56:45.415Z,26.73
2018-09-19T10:59:15.136Z,26.72
2018-09-19T11:01:45.891Z,26.66
2018-09-19T11:04:15.179Z,26.59
2018-09-19T11:06:45.571Z,26.57
2018-09-19T11:09:15.722Z,26.62
2018-09-19T11:11:45.041Z,26.69
2018-09-19T11:14:15.240Z,26.70
2018-09-19T11:16:44.748Z,26.65
2018-09-19T11:19:14.709Z,26.64
2018-09-19T11:21:44.067Z,26.74
2018-09-19T11:24:13.671Z,26.64
2018-09-19T11:26:43.096Z,26.62
2018-09-19T11:29:12.482Z,26.66
2018-09-19T11:31:42.799Z,26.65
2018-09-19T11:34:12.301Z,26.67
2018-09-19T11:36:41.874Z,26.82
2018-09-19T11:39:12.780Z,26.99
2018-09-19T11:41:42.421Z,27.15
2018-09-19T11:44:11.857Z,27.23
2018-09-19T11:46:41.246Z,27.32
2018-09-19T11:49:10.870Z,27.49
2018-09-19T11:51:40.238Z,27.68
2018-09-19T11:54:09.652Z,27.63
2018-09-19T11:56:39.794Z,27.48
2018-09-19T11:59:10.069Z,27.46
2018-09-19T12:01:39.555Z,27.64
2018-09-19T12:04:10.291Z,27.84
2018-09-19T12:06:39.724Z,28.45
2018-09-19T12:09:11.048Z,29.19
2018-09-19T12:11:40.485Z,29.48
2018-09-19T12:14:11.718Z,29.84
2018-09-19T12:16:41.347Z,29.89
2018-09-19T12:19:10.615Z,30.28
2018-09-19T12:21:39.983Z,30.44
2018-09-19T12:24:10.795Z,30.48
2018-09-19T12:26:40.393Z,30.33
2018-09-19T12:29:09.652Z,30.30
2018-09-19T12:31:39.117Z,29.95
2018-09-19T12:34:09.105Z,29.85
2018-09-19T12:36:38.546Z,30.24
2018-09-19T12:39:10.834Z,30.45
2018-09-19T12:41:41.149Z,30.52
2018-09-19T12:44:12.094Z,30.74
2018-09-19T12:46:41.452Z,30.76
2018-09-19T12:49:12.594Z,30.24
2018-09-19T12:51:48.648Z,30.54
2018-09-19T12:54:18.045Z,30.88
2018-09-19T12:56:49.942Z,30.69
2018-09-19T12:59:20.339Z,30.61
2018-09-19T13:01:49.697Z,30.63
2018-09-19T13:04:19.108Z,30.64
2018-09-19T13:06:49.073Z,30.48
2018-09-19T13:09:19.181Z,30.90
2018-09-19T13:11:48.680Z,31.04
2018-09-19T13:14:17.983Z,31.07
2018-09-19T13:16:47.806Z,31.31
2018-09-19T13:19:19.252Z,30.77
2018-09-19T13:21:49.698Z,31.04
2018-09-19T13:24:19.605Z,31.28
2018-09-19T13:26:49.946Z,31.29
2018-09-19T13:29:19.329Z,30.99
2018-09-19T13:31:49.493Z,31.36
2018-09-19T13:34:18.901Z,31.29
2018-09-19T13:36:49.480Z,31.52
2018-09-19T13:39:19.415Z,31.63
2018-09-19T13:41:49.713Z,31.19
2018-09-19T13:44:19.880Z,31.21
2018-09-19T13:46:49.367Z,31.42
2018-09-19T13:49:29.165Z,31.44
2018-09-19T13:51:58.947Z,31.45
2018-09-19T13:54:29.221Z,31.43
2018-09-19T13:56:59.257Z,31.89
2018-09-19T13:59:29.466Z,31.61
2018-09-19T14:01:58.873Z,31.77
2018-09-19T14:04:28.428Z,31.95
2018-09-19T14:06:57.977Z,31.94
2018-09-19T14:09:27.282Z,31.85
2018-09-19T14:11:57.606Z,31.95
2018-09-19T14:14:27.526Z,32.01
2018-09-19T14:16:57.546Z,32.16
2018-09-19T14:19:26.978Z,31.95
2018-09-19T14:21:56.951Z,31.94
2018-09-19T14:24:26.336Z,31.34
2018-09-19T14:26:56.471Z,31.08
2018-09-19T14:29:25.875Z,30.81
2018-09-19T14:31:55.568Z,30.56
2018-09-19T14:34:26.203Z,30.34
2018-09-19T14:36:55.611Z,30.23
2018-09-19T14:39:25.627Z,30.07
2018-09-19T14:41:55.172Z,29.87
2018-09-19T14:44:25.621Z,29.80
2018-09-19T14:46:55.590Z,29.55
2018-09-19T14:49:25.384Z,29.48
2018-09-19T14:51:55.909Z,29.38
2018-09-19T14:54:25.663Z,29.30
2018-09-19T14:56:57.581Z,29.30
2018-09-19T14:59:27.737Z,29.23
2018-09-19T15:01:57.178Z,29.15
2018-09-19T15:04:26.500Z,29.04
2018-09-19T15:06:55.831Z,29.04
2018-09-19T15:09:25.568Z,29.03
2018-09-19T15:11:55.447Z,28.94
2018-09-19T15:14:25.576Z,28.85
2018-09-19T15:16:58.672Z,28.82
2018-09-19T15:19:29.303Z,28.78
2018-09-19T15:21:58.958Z,28.76
2018-09-19T15:24:31.232Z,28.67
2018-09-19T15:27:02.804Z,28.58
2018-09-19T15:29:32.327Z,28.58
2018-09-19T15:32:01.664Z,28.61
2018-09-19T15:34:31.636Z,28.58
2018-09-19T15:37:01.984Z,28.51
2018-09-19T15:39:31.775Z,28.52
2018-09-19T15:42:01.285Z,28.39
2018-09-19T15:44:31.203Z,28.34
2018-09-19T15:47:00.583Z,28.26
2018-09-19T15:49:29.983Z,28.21
2018-09-19T15:51:59.316Z,28.13
2018-09-19T15:54:28.689Z,28.23
2018-09-19T15:56:58.092Z,28.18
2018-09-19T15:59:28.384Z,28.12
2018-09-19T16:01:57.643Z,28.11
2018-09-19T16:04:27.180Z,28.12
2018-09-19T16:06:56.731Z,28.12
2018-09-19T16:09:29.291Z,28.07
2018-09-19T16:11:58.940Z,28.06
2018-09-19T16:14:28.338Z,27.97
2018-09-19T16:16:58.452Z,27.92
2018-09-19T16:19:28.780Z,27.95
2018-09-19T16:21:58.519Z,27.84
2018-09-19T16:24:27.917Z,27.80
2018-09-19T16:26:58.534Z,27.65
2018-09-19T16:29:28.289Z,27.63
2018-09-19T16:31:59.079Z,27.58
2018-09-19T16:34:29.767Z,27.45
2018-09-19T16:37:00.439Z,27.38
2018-09-19T16:39:30.209Z,27.31
2018-09-19T16:42:00.529Z,27.23
2018-09-19T16:44:30.040Z,27.12
2018-09-19T16:46:59.545Z,27.08
2018-09-19T16:49:29.626Z,27.02
2018-09-19T16:51:59.431Z,26.98
2018-09-19T16:54:30.855Z,27.03
2018-09-19T16:57:00.912Z,26.92
2018-09-19T16:59:30.792Z,26.81
2018-09-19T17:02:01.276Z,26.77
2018-09-19T17:04:31.742Z,26.76
2018-09-19T17:07:02.745Z,26.64
2018-09-19T17:09:32.214Z,26.62
2018-09-19T17:12:02.787Z,26.57
2018-09-19T17:14:32.291Z,26.56
2018-09-19T17:17:02.975Z,26.48
2018-09-19T17:19:32.335Z,26.41
2018-09-19T17:22:02.377Z,26.35
2018-09-19T17:24:31.905Z,26.32
2018-09-19T17:27:05.504Z,26.26
2018-09-19T17:29:35.125Z,26.18
2018-09-19T17:32:04.857Z,26.20
2018-09-19T17:34:36.970Z,26.09
2018-09-19T17:37:07.444Z,26.04
2018-09-19T17:39:37.007Z,25.93
2018-09-19T17:42:07.239Z,25.83
2018-09-19T17:44:37.071Z,25.83
2018-09-19T17:47:06.492Z,25.81
2018-09-19T17:49:36.880Z,25.77
2018-09-19T17:52:07.924Z,25.66
2018-09-19T17:54:37.837Z,25.56
2018-09-19T17:57:07.640Z,25.50
2018-09-19T17:59:38.709Z,25.51
2018-09-19T18:02:08.800Z,25.41
2018-09-19T18:04:38.507Z,25.37
2018-09-19T18:07:09.660Z,25.26
2018-09-19T18:09:39.258Z,25.19
2018-09-19T18:12:08.692Z,25.06
2018-09-19T18:14:38.192Z,25.01
2018-09-19T18:17:08.861Z,24.93
2018-09-19T18:19:39.255Z,24.87
2018-09-19T18:22:10.116Z,24.84
2018-09-19T18:24:39.598Z,24.76
2018-09-19T18:27:10.056Z,24.65
2018-09-19T18:29:40.691Z,24.60
2018-09-19T18:32:12.236Z,24.50
2018-09-19T18:34:41.595Z,24.41
2018-09-19T18:37:10.973Z,24.32
2018-09-19T18:39:42.254Z,24.32
2018-09-19T18:42:13.476Z,24.28
2018-09-19T18:44:42.984Z,24.26
2018-09-19T18:47:13.825Z,24.20
2018-09-19T18:49:43.352Z,24.16
2018-09-19T18:52:13.261Z,24.12
2018-09-19T18:54:43.526Z,24.04
2018-09-19T18:57:14.220Z,24.06
2018-09-19T18:59:44.031Z,24.02
2018-09-19T19:02:13.564Z,24.01
2018-09-19T19:04:43.640Z,23.89
2018-09-19T19:07:14.294Z,23.83
2018-09-19T19:09:44.972Z,23.84
2018-09-19T19:12:16.144Z,23.75
2018-09-19T19:14:45.820Z,23.66
2018-09-19T19:17:15.639Z,23.63
2018-09-19T19:19:45.300Z,23.62
2018-09-19T19:22:16.853Z,23.59
2018-09-19T19:24:47.168Z,23.53
2018-09-19T19:27:17.754Z,23.52
2018-09-19T19:29:47.294Z,23.47
2018-09-19T19:32:17.789Z,23.42
2018-09-19T19:34:49.188Z,23.43
2018-09-19T19:37:18.694Z,23.46
2018-09-19T19:39:49.833Z,23.39
2018-09-19T19:42:21.184Z,23.45
2018-09-19T19:44:51.502Z,23.41
2018-09-19T19:47:21.694Z,23.40
2018-09-19T19:49:51.252Z,23.33
2018-09-19T19:52:20.774Z,23.28
2018-09-19T19:54:51.505Z,23.20
2018-09-19T19:57:21.879Z,23.13
2018-09-19T19:59:54.584Z,23.09
2018-09-19T20:02:25.294Z,23.10
2018-09-19T20:04:54.808Z,23.07
2018-09-19T20:07:24.306Z,23.04
2018-09-19T20:09:54.946Z,23.00
2018-09-19T20:12:25.610Z,22.96
2018-09-19T20:14:55.251Z,22.93
2018-09-19T20:17:24.755Z,22.87
2018-09-19T20:19:54.840Z,22.83
2018-09-19T20:22:25.874Z,22.77
2018-09-19T20:24:55.539Z,22.72
2018-09-19T20:27:25.643Z,22.70
2018-09-19T20:29:55.257Z,22.63
2018-09-19T20:32:25.219Z,22.58
2018-09-19T20:34:54.650Z,22.53
2018-09-19T20:37:24.053Z,22.47
2018-09-19T20:39:53.368Z,22.46
2018-09-19T20:42:23.777Z,22.39
2018-09-19T20:44:53.539Z,22.38
2018-09-19T20:47:23.860Z,22.35
2018-09-19T20:49:53.266Z,22.32
2018-09-19T20:52:22.746Z,22.29
2018-09-19T20:54:52.885Z,22.27
2018-09-19T20:57:24.202Z,22.25
2018-09-19T20:59:54.761Z,22.21
2018-09-19T21:02:24.205Z,22.18
2018-09-19T21:04:54.809Z,22.14
2018-09-19T21:07:24.685Z,22.12
2018-09-19T21:09:56.462Z,22.09
2018-09-19T21:12:26.389Z,22.05
2018-09-19T21:14:55.942Z,22.03
2018-09-19T21:17:26.690Z,22.01
2018-09-19T21:19:58.170Z,21.98
2018-09-19T21:22:28.673Z,21.95
2018-09-19T21:24:58.535Z,21.92
2018-09-19T21:27:27.964Z,21.89
2018-09-19T21:29:57.351Z,21.86
2018-09-19T21:32:27.520Z,21.84
2018-09-19T21:34:57.120Z,21.84
2018-09-19T21:37:27.104Z,21.85
2018-09-19T21:39:56.510Z,21.83
2018-09-19T21:42:26.638Z,21.81
2018-09-19T21:44:56.046Z,21.79
2018-09-19T21:47:26.816Z,21.77
2018-09-19T21:49:56.438Z,21.77
2018-09-19T21:52:26.157Z,21.74
2018-09-19T21:54:55.818Z,21.72
2018-09-19T21:57:25.326Z,21.69
2018-09-19T21:59:54.868Z,21.67
2018-09-19T22:02:25.091Z,21.66
2018-09-19T22:04:54.628Z,21.61
2018-09-19T22:07:25.163Z,21.60
2018-09-19T22:10:00.524Z,21.59
2018-09-19T22:12:29.789Z,21.57
2018-09-19T22:14:59.232Z,21.54
2018-09-19T22:17:29.250Z,21.55
2018-09-19T22:19:58.580Z,21.53
2018-09-19T22:22:28.470Z,21.52
2018-09-19T22:24:57.906Z,21.50
2018-09-19T22:27:27.486Z,21.46
2018-09-19T22:29:57.295Z,21.43
2018-09-19T22:32:26.857Z,21.38
2018-09-19T22:34:56.237Z,21.37
2018-09-19T22:37:26.437Z,21.31
2018-09-19T22:39:55.689Z,21.29
2018-09-19T22:42:24.940Z,21.25
2018-09-19T22:45:01.356Z,21.22
2018-09-19T22:47:30.958Z,21.18
2018-09-19T22:50:00.357Z,21.14
2018-09-19T22:52:30.191Z,21.11
2018-09-19T22:54:59.845Z,21.09
2018-09-19T22:57:29.126Z,21.07
2018-09-19T22:59:59.756Z,21.03
2018-09-19T23:02:29.638Z,21.01
2018-09-19T23:04:58.972Z,20.98
2018-09-19T23:07:28.245Z,20.95
2018-09-19T23:09:58.363Z,20.94
2018-09-19T23:12:27.696Z,20.91
2018-09-19T23:14:56.963Z,20.90
2018-09-19T23:17:26.436Z,20.88
2018-09-19T23:19:55.900Z,20.85
2018-09-19T23:22:25.241Z,20.85
2018-09-19T23:24:54.655Z,20.82
2018-09-19T23:27:24.107Z,20.80
2018-09-19T23:29:53.510Z,20.76
2018-09-19T23:32:22.978Z,20.73
2018-09-19T23:34:52.379Z,20.74
2018-09-19T23:37:23.787Z,20.72
2018-09-19T23:39:53.605Z,20.67
2018-09-19T23:42:23.002Z,20.63
2018-09-19T23:44:52.424Z,20.60
2018-09-19T23:47:21.803Z,20.55
2018-09-19T23:49:51.076Z,20.52
2018-09-19T23:52:23.140Z,20.48
2018-09-19T23:54:54.592Z,20.43
2018-09-19T23:57:27.882Z,20.40
2018-09-19T23:59:57.478Z,20.35
